createdAt,value
2022-11-27T00:00:49.637Z,42.60
2022-11-27T00:03:41.617Z,43.90
2022-11-27T00:06:16.093Z,48.00
2022-11-27T00:08:48.745Z,46.30
2022-11-27T00:11:22.585Z,46.80
2022-11-27T00:13:54.641Z,44.00
2022-11-27T00:16:27.494Z,42.60
2022-11-27T00:18:59.536Z,43.10
2022-11-27T00:21:33.341Z,41.60
2022-11-27T00:24:07.963Z,43.00
2022-11-27T00:26:39.542Z,41.50
2022-11-27T00:29:11.631Z,38.10
2022-11-27T00:31:43.241Z,40.30
2022-11-27T00:34:14.837Z,41.90
2022-11-27T00:36:48.258Z,42.20
2022-11-27T00:39:20.530Z,44.50
2022-11-27T00:41:52.013Z,49.70
2022-11-27T00:44:23.569Z,45.50
2022-11-27T00:46:55.101Z,47.90
2022-11-27T00:49:26.708Z,47.00
2022-11-27T00:51:58.294Z,45.20
2022-11-27T00:54:29.804Z,43.50
2022-11-27T00:57:01.418Z,50.80
2022-11-27T00:59:33.359Z,51.30
2022-11-27T01:02:04.976Z,42.40
2022-11-27T01:04:36.991Z,46.10
2022-11-27T01:07:08.611Z,42.80
2022-11-27T01:09:40.365Z,41.50
2022-11-27T01:12:11.914Z,38.70
2022-11-27T01:14:43.465Z,39.00
2022-11-27T01:17:14.931Z,41.40
2022-11-27T01:19:46.478Z,37.40
2022-11-27T01:22:18.032Z,38.10
2022-11-27T01:24:49.544Z,41.50
2022-11-27T01:27:21.101Z,38.30
2022-11-27T01:29:52.645Z,42.70
2022-11-27T01:32:24.288Z,39.40
2022-11-27T01:34:55.866Z,40.10
2022-11-27T01:37:27.419Z,41.40
2022-11-27T01:39:58.924Z,45.20
2022-11-27T01:42:30.439Z,44.70
2022-11-27T01:45:01.999Z,49.10
2022-11-27T01:47:40.832Z,43.50
2022-11-27T01:50:20.382Z,47.10
2022-11-27T01:52:56.905Z,48.20
2022-11-27T01:55:33.682Z,45.30
2022-11-27T01:58:10.602Z,46.20
2022-11-27T02:00:42.712Z,43.40
2022-11-27T02:03:14.297Z,47.70
2022-11-27T02:05:45.816Z,43.90
2022-11-27T02:08:19.111Z,48.40
2022-11-27T02:10:54.303Z,49.60
2022-11-27T02:13:31.741Z,49.00
2022-11-27T02:16:17.795Z,40.50
2022-11-27T02:18:55.940Z,41.80
2022-11-27T02:21:39.546Z,42.20
2022-11-27T02:24:34.511Z,44.60
2022-11-27T02:27:22.600Z,43.30
2022-11-27T02:30:00.567Z,41.90
2022-11-27T02:32:37.259Z,42.50
2022-11-27T02:35:13.873Z,40.60
2022-11-27T02:37:50.517Z,43.20
2022-11-27T02:40:27.175Z,42.70
2022-11-27T02:43:02.087Z,44.30
2022-11-27T02:45:37.055Z,39.30
2022-11-27T02:48:10.932Z,36.00
2022-11-27T02:50:45.265Z,39.20
2022-11-27T02:53:21.248Z,38.10
2022-11-27T02:55:54.572Z,36.40
2022-11-27T02:58:28.661Z,37.30
2022-11-27T03:01:01.209Z,50.00
2022-11-27T03:03:37.670Z,43.80
2022-11-27T03:06:12.977Z,47.40
2022-11-27T03:08:51.705Z,40.40
2022-11-27T03:11:24.778Z,43.60
2022-11-27T03:14:00.705Z,46.60
2022-11-27T03:16:40.856Z,41.70
2022-11-27T03:19:19.763Z,42.60
2022-11-27T03:21:54.837Z,41.20
2022-11-27T03:24:27.999Z,40.60
2022-11-27T03:27:00.095Z,36.00
2022-11-27T03:29:36.954Z,39.70
2022-11-27T03:32:08.913Z,37.10
2022-11-27T03:34:40.953Z,41.60
2022-11-27T03:37:13.271Z,35.70
2022-11-27T03:39:45.945Z,37.00
2022-11-27T03:42:24.477Z,38.30
2022-11-27T03:45:07.956Z,39.90
2022-11-27T03:47:49.792Z,38.80
2022-11-27T03:50:32.246Z,37.90
2022-11-27T03:53:13.773Z,41.50
2022-11-27T03:55:55.072Z,41.80
2022-11-27T03:58:33.668Z,43.20
2022-11-27T04:01:09.725Z,44.00
2022-11-27T04:03:41.679Z,44.00
2022-11-27T04:06:13.378Z,46.80
2022-11-27T04:08:46.844Z,43.50
2022-11-27T04:11:18.369Z,47.30
2022-11-27T04:13:52.087Z,50.90
2022-11-27T04:16:23.726Z,43.00
2022-11-27T04:18:55.582Z,44.70
2022-11-27T04:21:27.123Z,43.30
2022-11-27T04:23:58.685Z,45.40
2022-11-27T04:26:30.169Z,47.40
2022-11-27T04:29:02.688Z,40.40
2022-11-27T04:31:34.254Z,39.60
2022-11-27T04:34:05.952Z,39.70
2022-11-27T04:36:39.460Z,38.70
2022-11-27T04:39:13.149Z,38.30
2022-11-27T04:41:44.722Z,38.80
2022-11-27T04:44:16.635Z,42.50
2022-11-27T04:46:48.342Z,44.50
2022-11-27T04:49:19.973Z,38.50
2022-11-27T04:51:51.445Z,47.10
2022-11-27T04:54:24.732Z,39.20
2022-11-27T04:56:56.270Z,46.30
2022-11-27T04:59:27.825Z,43.50
2022-11-27T05:01:59.332Z,48.80
2022-11-27T05:04:30.888Z,40.90
2022-11-27T05:07:02.447Z,47.60
2022-11-27T05:09:34.020Z,45.60
2022-11-27T05:12:06.201Z,42.50
2022-11-27T05:14:38.257Z,43.40
2022-11-27T05:17:10.290Z,49.70
2022-11-27T05:19:41.809Z,38.80
2022-11-27T05:22:13.391Z,40.50
2022-11-27T05:24:45.281Z,39.20
2022-11-27T05:27:16.821Z,39.70
2022-11-27T05:29:48.324Z,37.80
2022-11-27T05:32:19.925Z,38.70
2022-11-27T05:34:51.534Z,44.00
2022-11-27T05:37:23.131Z,41.30
2022-11-27T05:39:54.659Z,44.20
2022-11-27T05:42:26.173Z,44.40
2022-11-27T05:44:58.606Z,46.60
2022-11-27T05:47:30.418Z,43.60
2022-11-27T05:50:01.963Z,44.50
2022-11-27T05:52:33.520Z,46.10
2022-11-27T05:55:05.865Z,42.90
2022-11-27T05:57:37.605Z,44.80
2022-11-27T06:00:11.769Z,40.30
2022-11-27T06:02:43.400Z,43.30
2022-11-27T06:05:15.243Z,37.40
2022-11-27T06:07:46.932Z,39.60
2022-11-27T06:10:18.976Z,36.20
2022-11-27T06:12:50.489Z,37.20
2022-11-27T06:15:22.179Z,35.70
2022-11-27T06:17:53.921Z,36.60
2022-11-27T06:20:25.564Z,39.60
2022-11-27T06:22:58.728Z,37.50
2022-11-27T06:25:30.483Z,40.70
2022-11-27T06:28:02.102Z,37.60
2022-11-27T06:30:33.933Z,39.10
2022-11-27T06:33:05.587Z,36.10
2022-11-27T06:35:38.277Z,37.40
2022-11-27T06:38:09.833Z,36.80
2022-11-27T06:40:41.488Z,34.10
2022-11-27T06:43:12.978Z,34.50
2022-11-27T06:45:44.525Z,37.10
2022-11-27T06:48:16.091Z,34.70
2022-11-27T06:50:47.651Z,40.00
2022-11-27T06:53:19.351Z,31.90
2022-11-27T06:55:51.130Z,31.30
2022-11-27T06:58:27.786Z,34.00
2022-11-27T07:01:03.415Z,31.90
2022-11-27T07:03:35.473Z,32.10
2022-11-27T07:06:09.232Z,31.00
2022-11-27T07:08:40.799Z,37.70
2022-11-27T07:11:15.269Z,36.60
2022-11-27T07:13:47.412Z,39.50
2022-11-27T07:16:20.158Z,39.40
2022-11-27T07:18:53.861Z,36.80
2022-11-27T07:23:57.192Z,43.00
2022-11-27T07:26:31.171Z,40.60
2022-11-27T07:29:02.723Z,39.10
2022-11-27T07:31:34.341Z,41.30
2022-11-27T07:34:10.361Z,40.30
2022-11-27T07:36:45.882Z,38.50
2022-11-27T07:39:33.910Z,37.40
2022-11-27T07:45:01.638Z,42.00
2022-11-27T07:47:33.529Z,42.80
2022-11-27T07:50:07.273Z,43.90
2022-11-27T07:52:41.824Z,44.50
2022-11-27T07:55:14.019Z,46.70
2022-11-27T07:57:45.569Z,46.10
2022-11-27T08:00:18.840Z,49.20
2022-11-27T08:02:50.430Z,55.50
2022-11-27T08:05:21.963Z,51.40
2022-11-27T08:07:53.579Z,51.70
2022-11-27T08:10:25.141Z,65.20
2022-11-27T08:12:56.609Z,54.10
2022-11-27T08:15:28.124Z,47.10
2022-11-27T08:17:59.623Z,47.50
2022-11-27T08:20:31.201Z,51.90
2022-11-27T08:23:03.351Z,47.40
2022-11-27T08:25:34.966Z,52.30
2022-11-27T08:28:06.824Z,49.90
2022-11-27T08:30:38.341Z,47.70
2022-11-27T08:33:10.490Z,49.70
2022-11-27T08:35:42.028Z,45.60
2022-11-27T08:38:13.738Z,47.40
2022-11-27T08:40:45.334Z,43.20
2022-11-27T08:43:17.865Z,43.50
2022-11-27T08:45:49.799Z,43.20
2022-11-27T08:48:22.276Z,49.10
2022-11-27T08:50:54.429Z,48.80
2022-11-27T08:53:25.941Z,47.20
2022-11-27T08:56:05.571Z,44.60
2022-11-27T08:58:37.164Z,41.60
2022-11-27T09:01:17.815Z,44.30
2022-11-27T09:03:50.372Z,44.50
2022-11-27T09:06:24.781Z,46.90
2022-11-27T09:09:00.834Z,41.30
2022-11-27T09:11:34.077Z,40.30
2022-11-27T09:14:06.877Z,40.40
2022-11-27T09:16:38.631Z,42.00
2022-11-27T09:19:10.292Z,40.90
2022-11-27T09:21:41.832Z,36.50
2022-11-27T09:24:13.363Z,39.60
2022-11-27T09:26:45.873Z,39.40
2022-11-27T09:29:17.618Z,40.80
2022-11-27T09:31:49.281Z,43.40
2022-11-27T09:34:20.891Z,39.50
2022-11-27T09:36:52.416Z,38.80
2022-11-27T09:39:26.351Z,41.50
2022-11-27T09:42:00.175Z,46.20
2022-11-27T09:44:43.281Z,46.50
2022-11-27T09:47:20.957Z,39.50
2022-11-27T09:49:58.626Z,38.90
2022-11-27T09:52:38.388Z,45.20
2022-11-27T09:55:18.225Z,46.20
2022-11-27T09:57:59.269Z,49.30
2022-11-27T10:00:31.056Z,44.30
2022-11-27T10:03:02.857Z,47.70
2022-11-27T10:05:44.314Z,44.60
2022-11-27T10:08:36.223Z,36.60
2022-11-27T10:11:22.685Z,32.20
2022-11-27T10:14:07.043Z,25.10
2022-11-27T10:16:44.917Z,31.30
2022-11-27T10:19:29.956Z,31.10
2022-11-27T10:22:10.303Z,25.00
2022-11-27T10:24:47.506Z,27.20
2022-11-27T10:27:24.692Z,31.00
2022-11-27T10:29:58.603Z,28.50
2022-11-27T10:32:54.683Z,30.50
2022-11-27T10:35:27.784Z,31.30
2022-11-27T10:38:07.064Z,25.50
2022-11-27T10:40:44.877Z,30.60
2022-11-27T10:43:21.069Z,26.50
2022-11-27T10:45:55.930Z,33.30
2022-11-27T10:48:29.618Z,27.50
2022-11-27T10:53:34.146Z,28.20
2022-11-27T10:58:56.852Z,29.30
2022-11-27T11:01:30.812Z,33.30
2022-11-27T11:04:35.840Z,36.00
2022-11-27T11:07:02.296Z,34.00
2022-11-27T11:09:35.851Z,31.10
2022-11-27T11:12:18.943Z,26.50
2022-11-27T11:14:56.297Z,31.00
2022-11-27T11:17:34.314Z,28.40
2022-11-27T11:20:20.048Z,29.10
2022-11-27T11:22:52.675Z,33.40
2022-11-27T11:25:24.523Z,31.70
2022-11-27T11:27:56.557Z,38.70
2022-11-27T11:30:30.565Z,34.00
2022-11-27T11:33:05.232Z,33.60
2022-11-27T11:35:38.301Z,35.80
2022-11-27T11:38:19.466Z,30.40
2022-11-27T11:41:01.958Z,24.30
2022-11-27T11:43:35.972Z,27.70
2022-11-27T11:46:17.573Z,20.80
2022-11-27T11:49:01.835Z,22.20
2022-11-27T11:51:58.265Z,20.20
2022-11-27T11:54:50.433Z,25.90
2022-11-27T11:57:57.001Z,24.90
2022-11-27T12:00:58.456Z,21.10
2022-11-27T12:03:46.965Z,21.00
2022-11-27T12:06:46.618Z,21.20
2022-11-27T12:09:38.953Z,19.50
2022-11-27T12:12:21.203Z,19.30
2022-11-27T12:14:59.139Z,19.90
2022-11-27T12:17:44.075Z,16.70
2022-11-27T12:20:22.832Z,18.60
2022-11-27T12:23:22.105Z,25.70
2022-11-27T12:26:02.513Z,28.50
2022-11-27T12:28:54.451Z,22.00
2022-11-27T12:31:43.448Z,18.40
2022-11-27T12:34:24.986Z,20.60
2022-11-27T12:37:13.930Z,19.00
2022-11-27T12:39:58.932Z,21.30
2022-11-27T12:42:37.201Z,20.60
2022-11-27T12:45:16.504Z,22.80
2022-11-27T12:47:53.936Z,17.30
2022-11-27T12:50:40.705Z,19.70
2022-11-27T12:53:24.542Z,20.80
2022-11-27T12:56:08.053Z,22.10
2022-11-27T12:58:44.829Z,19.50
2022-11-27T13:01:26.429Z,18.80
2022-11-27T13:04:13.492Z,24.10
2022-11-27T13:06:54.699Z,24.40
2022-11-27T13:09:33.539Z,21.20
2022-11-27T13:12:06.882Z,20.50
2022-11-27T13:14:43.244Z,22.20
2022-11-27T13:17:18.007Z,21.80
2022-11-27T13:22:28.520Z,19.90
2022-11-27T13:25:04.083Z,14.70
2022-11-27T13:27:37.528Z,8.70
2022-11-27T13:30:19.734Z,9.60
2022-11-27T13:32:54.814Z,9.30
2022-11-27T13:35:31.347Z,10.50
2022-11-27T13:38:10.598Z,8.50
2022-11-27T13:40:44.927Z,8.80
2022-11-27T13:43:28.801Z,10.90
2022-11-27T13:48:42.324Z,10.60
2022-11-27T13:51:23.143Z,11.60
2022-11-27T13:53:55.399Z,9.10
2022-11-27T13:56:35.793Z,6.80
2022-11-27T13:59:18.395Z,7.80
2022-11-27T14:02:01.318Z,9.20
2022-11-27T14:04:33.932Z,10.30
2022-11-27T14:07:07.995Z,11.40
2022-11-27T14:09:42.328Z,9.60
2022-11-27T14:12:25.199Z,11.30
2022-11-27T14:15:07.592Z,10.30
2022-11-27T14:17:42.803Z,11.80
2022-11-27T14:20:29.944Z,10.90
2022-11-27T14:23:17.547Z,12.10
2022-11-27T14:25:49.158Z,15.40
2022-11-27T14:28:26.028Z,11.30
2022-11-27T14:30:59.812Z,11.10
2022-11-27T14:33:59.787Z,11.00
2022-11-27T14:36:30.223Z,10.10
2022-11-27T14:39:02.377Z,11.20
2022-11-27T14:41:34.528Z,11.70
2022-11-27T14:44:08.160Z,11.20
2022-11-27T14:46:39.927Z,18.60
2022-11-27T14:49:20.479Z,17.80
2022-11-27T14:51:52.964Z,19.80
2022-11-27T14:54:29.040Z,20.00
2022-11-27T14:57:01.084Z,20.00
2022-11-27T14:59:32.657Z,23.50
2022-11-27T15:02:17.867Z,28.30
2022-11-27T15:04:50.849Z,28.10
2022-11-27T15:07:29.286Z,35.50
2022-11-27T15:10:04.141Z,40.20
2022-11-27T15:12:40.651Z,43.50
2022-11-27T15:15:19.669Z,51.40
2022-11-27T15:17:54.553Z,50.50
2022-11-27T15:20:29.824Z,51.30
2022-11-27T15:23:02.459Z,51.70
2022-11-27T15:25:39.643Z,48.40
2022-11-27T15:28:36.830Z,44.00
2022-11-27T15:31:28.266Z,47.60
2022-11-27T15:34:06.539Z,52.60
2022-11-27T15:36:41.815Z,61.60
2022-11-27T15:39:22.425Z,60.50
2022-11-27T15:41:56.658Z,72.30
2022-11-27T15:44:30.090Z,72.90
2022-11-27T15:47:03.854Z,56.90
2022-11-27T15:49:35.789Z,61.80
2022-11-27T15:52:07.439Z,61.60
2022-11-27T15:54:39.213Z,62.40
2022-11-27T15:57:10.991Z,68.10
2022-11-27T15:59:42.491Z,78.80
2022-11-27T16:02:18.012Z,74.00
2022-11-27T16:04:51.014Z,73.40
2022-11-27T16:07:22.511Z,75.60
2022-11-27T16:09:54.442Z,59.00
2022-11-27T16:12:26.069Z,57.60
2022-11-27T16:14:57.615Z,50.70
2022-11-27T16:17:29.117Z,39.40
2022-11-27T16:20:00.707Z,34.00
2022-11-27T16:22:35.483Z,43.20
2022-11-27T16:25:09.992Z,44.40
2022-11-27T16:27:41.550Z,44.60
2022-11-27T16:30:15.371Z,47.60
2022-11-27T16:32:46.879Z,48.90
2022-11-27T16:35:18.705Z,48.90
2022-11-27T16:37:50.272Z,57.60
2022-11-27T16:40:21.968Z,52.80
2022-11-27T16:42:53.480Z,52.90
2022-11-27T16:45:25.198Z,46.70
2022-11-27T16:47:56.924Z,55.50
2022-11-27T16:50:30.205Z,53.70
2022-11-27T16:53:01.802Z,54.40
2022-11-27T16:55:33.402Z,48.00
2022-11-27T16:58:04.971Z,52.00
2022-11-27T17:00:36.534Z,47.30
2022-11-27T17:03:08.235Z,59.20
2022-11-27T17:05:40.885Z,68.40
2022-11-27T17:08:12.395Z,64.40
2022-11-27T17:10:47.739Z,72.90
2022-11-27T17:13:19.358Z,67.80
2022-11-27T17:15:50.904Z,70.00
2022-11-27T17:18:22.542Z,62.00
2022-11-27T17:20:54.138Z,63.80
2022-11-27T17:23:25.660Z,62.90
2022-11-27T17:25:57.338Z,70.90
2022-11-27T17:28:28.832Z,80.90
2022-11-27T17:31:00.291Z,75.20
2022-11-27T17:33:31.989Z,70.20
2022-11-27T17:36:03.887Z,72.40
2022-11-27T17:38:35.392Z,66.20
2022-11-27T17:41:09.283Z,60.00
2022-11-27T17:43:41.526Z,62.70
2022-11-27T17:46:17.168Z,58.80
2022-11-27T17:48:49.429Z,55.90
2022-11-27T17:51:21.494Z,48.40
2022-11-27T17:53:53.021Z,52.50
2022-11-27T17:56:24.602Z,46.50
2022-11-27T17:58:56.696Z,61.50
2022-11-27T18:01:30.292Z,49.70
2022-11-27T18:04:04.035Z,63.20
2022-11-27T18:09:07.594Z,61.70
2022-11-27T18:11:39.670Z,64.20
2022-11-27T18:14:13.463Z,58.30
2022-11-27T18:16:44.996Z,59.20
2022-11-27T18:19:16.530Z,62.40
2022-11-27T18:21:48.026Z,64.20
2022-11-27T18:24:24.415Z,66.90
2022-11-27T18:27:12.527Z,61.50
2022-11-27T18:29:45.715Z,67.20
2022-11-27T18:32:18.679Z,90.00
2022-11-27T18:34:52.650Z,104.40
2022-11-27T18:37:24.518Z,121.20
2022-11-27T18:39:56.431Z,118.30
2022-11-27T18:42:30.240Z,108.90
2022-11-27T18:45:01.817Z,129.20
2022-11-27T18:47:33.833Z,113.50
2022-11-27T18:50:06.366Z,115.00
2022-11-27T18:52:38.059Z,95.60
2022-11-27T18:55:10.147Z,88.00
2022-11-27T18:57:41.634Z,70.60
2022-11-27T19:00:15.394Z,67.90
2022-11-27T19:02:47.002Z,67.20
2022-11-27T19:05:18.807Z,83.00
2022-11-27T19:07:50.577Z,80.60
2022-11-27T19:10:22.351Z,84.10
2022-11-27T19:12:53.892Z,83.10
2022-11-27T19:15:26.002Z,80.10
2022-11-27T19:17:57.841Z,86.70
2022-11-27T19:20:29.502Z,83.80
2022-11-27T19:23:01.140Z,79.30
2022-11-27T19:25:37.207Z,82.30
2022-11-27T19:28:10.374Z,77.40
2022-11-27T19:30:44.177Z,81.10
2022-11-27T19:33:15.702Z,79.10
2022-11-27T19:35:47.264Z,79.50
2022-11-27T19:38:18.995Z,70.00
2022-11-27T19:40:50.712Z,72.60
2022-11-27T19:43:22.325Z,78.00
2022-11-27T19:45:54.208Z,70.00
2022-11-27T19:48:25.895Z,72.80
2022-11-27T19:51:03.654Z,69.20
2022-11-27T19:53:36.152Z,64.80
2022-11-27T19:56:10.001Z,64.90
2022-11-27T19:58:41.967Z,64.40
2022-11-27T20:01:15.971Z,63.40
2022-11-27T20:03:48.073Z,64.60
2022-11-27T20:06:22.233Z,56.30
2022-11-27T20:08:55.897Z,70.30
2022-11-27T20:11:31.217Z,72.40
2022-11-27T20:14:06.826Z,74.00
2022-11-27T20:16:38.978Z,74.00
2022-11-27T20:19:10.697Z,72.60
2022-11-27T20:21:42.692Z,75.40
2022-11-27T20:24:14.727Z,70.20
2022-11-27T20:26:46.322Z,74.00
2022-11-27T20:29:18.261Z,73.50
2022-11-27T20:31:49.912Z,73.40
2022-11-27T20:34:22.928Z,88.10
2022-11-27T20:36:54.950Z,82.30
2022-11-27T20:39:28.456Z,80.20
2022-11-27T20:44:29.932Z,79.80
2022-11-27T20:47:01.441Z,77.30
2022-11-27T20:49:33.942Z,73.10
2022-11-27T20:52:05.671Z,76.70
2022-11-27T20:54:37.286Z,65.80
2022-11-27T20:57:14.051Z,65.40
2022-11-27T20:59:45.604Z,62.50
2022-11-27T21:02:17.411Z,66.20
2022-11-27T21:04:48.985Z,64.20
2022-11-27T21:07:21.638Z,71.70
2022-11-27T21:09:53.351Z,69.00
2022-11-27T21:12:24.873Z,72.20
2022-11-27T21:14:56.340Z,78.10
2022-11-27T21:17:27.875Z,77.50
2022-11-27T21:20:01.407Z,83.30
2022-11-27T21:25:03.136Z,82.20
2022-11-27T21:27:37.230Z,83.00
2022-11-27T21:30:10.693Z,82.10
2022-11-27T21:32:42.201Z,85.70
2022-11-27T21:35:13.647Z,85.90
2022-11-27T21:37:45.195Z,80.50
2022-11-27T21:40:17.628Z,82.30
2022-11-27T21:42:49.781Z,74.40
2022-11-27T21:45:21.517Z,74.80
2022-11-27T21:47:53.042Z,70.30
2022-11-27T21:50:24.580Z,72.30
2022-11-27T21:52:56.195Z,73.20
2022-11-27T21:55:28.049Z,71.20
2022-11-27T21:57:59.740Z,72.20
2022-11-27T22:00:31.395Z,66.70
2022-11-27T22:03:02.886Z,64.90
2022-11-27T22:05:34.487Z,59.80
2022-11-27T22:08:06.212Z,62.30
2022-11-27T22:10:41.833Z,64.90
2022-11-27T22:13:13.436Z,60.50
2022-11-27T22:15:44.984Z,62.20
2022-11-27T22:18:16.732Z,73.20
2022-11-27T22:20:48.417Z,71.40
2022-11-27T22:23:19.914Z,67.90
2022-11-27T22:25:51.454Z,81.80
2022-11-27T22:28:22.956Z,80.00
2022-11-27T22:30:54.581Z,88.20
2022-11-27T22:33:26.902Z,89.90
2022-11-27T22:35:58.584Z,89.80
2022-11-27T22:38:30.055Z,96.60
2022-11-27T22:41:01.899Z,107.70
2022-11-27T22:43:34.243Z,101.60
2022-11-27T22:46:09.534Z,98.30
2022-11-27T22:48:41.168Z,106.00
2022-11-27T22:51:13.369Z,107.60
2022-11-27T22:53:44.920Z,108.60
2022-11-27T22:56:16.770Z,101.30
2022-11-27T22:58:48.958Z,103.00
2022-11-27T23:01:22.441Z,100.70
2022-11-27T23:06:25.891Z,107.90
2022-11-27T23:08:57.569Z,119.80
2022-11-27T23:11:30.150Z,124.10
2022-11-27T23:14:01.870Z,106.40
2022-11-27T23:16:33.973Z,96.60
2022-11-27T23:19:05.869Z,101.40
2022-11-27T23:21:39.029Z,104.50
2022-11-27T23:24:16.069Z,98.90
2022-11-27T23:26:47.608Z,98.30
2022-11-27T23:29:19.104Z,99.00
2022-11-27T23:31:50.632Z,97.70
2022-11-27T23:34:22.477Z,94.80
2022-11-27T23:36:53.975Z,106.50
2022-11-27T23:39:25.429Z,116.90
2022-11-27T23:41:56.970Z,125.20
2022-11-27T23:44:28.669Z,128.40
2022-11-27T23:47:00.305Z,122.40
2022-11-27T23:49:32.153Z,122.00
2022-11-27T23:52:03.733Z,117.10
2022-11-27T23:54:35.208Z,120.40
2022-11-27T23:57:06.800Z,127.50
2022-11-27T23:59:38.473Z,114.70
